HMMO2: Washita River Near Hammon, OK

Data processed at Wed May 22 2019 23:30


All information presented herein is the property of the government of the United States of America and may be revised or deleted at any time without prior notice.
Dissemination of this information without the expressed written consent of the Public Affairs Office, Tulsa District U.S. Army Corps of Engineers is strictly prohibited.
These data are gathered electronically and, as presented, have not undergone any form of quality control. These data are not guaranteed to be valid or correct.
Go to home page.
Go to station list.
Go to home page.

Upstream stations:

Downstream station:
Previous Day
Next Day
Current Day
    
SHEF ID:       HMMO2     Washita River near Hammon, OK
STATION TYPE:  
Regulating: Stage =    22.00, Flow =     2507

               PRECIP     STAGE  STAGE(2)  RIV-FLOW  BAT-LOAD
                   in        ft        ft       cfs      volt
              Ccp-Rev   Ccp-Rev   Ccp-Rev   Ccp-Rev   Ccp-Rev
(US/Central)
05/22 00:00      0.00     20.20     19.55      1829     12.41
05/22 01:00      0.00     19.99     19.39      1780     12.41
05/22 02:00      0.00     19.80     19.21      1736     12.41
05/22 03:00      0.00     19.66     19.03      1703     12.33
05/22 04:00      0.00     19.43     18.83      1651     12.33
05/22 05:00      0.00     19.10     18.65      1581     12.33
05/22 06:00      0.00     18.82     18.47      1530     12.33
05/22 07:00      0.00     18.53     18.30      1477     12.33
05/22 08:00      0.00     18.32     18.14      1439     12.49
05/22 09:00      0.00     18.61     17.97      1491     13.05
05/22 10:00      0.00     18.33     17.82      1440     13.13
05/22 11:00      0.00     18.31     17.69      1437     12.97
05/22 12:00      0.00     18.18     17.55      1414     12.97
05/22 13:00      0.00     18.07     17.43      1394     12.97
05/22 14:00      0.00     17.97     17.31      1376     12.97
05/22 15:00      0.00     17.83     17.20      1351     12.97
05/22 16:00      0.00     17.79     17.10      1344     12.97
05/22 17:00      0.00     17.53     17.00      1299     13.05
05/22 18:00      0.00     17.59     16.91      1309     13.13
05/22 19:00      0.00     17.03     16.85      1213     12.89
05/22 20:00      0.00     17.09     16.78      1223     12.57
05/22 21:00      0.00     16.96     16.72      1201     12.49
05/22 22:00      0.00     17.34     16.67      1266     12.41
05/22 23:00      ----      ----      ----      ----      ----